createdAt,value
2023-03-06T00:00:06.380Z,29.3510
2023-03-06T00:01:06.517Z,29.3960
2023-03-06T00:02:08.792Z,29.3570
2023-03-06T00:03:11.151Z,29.3090
2023-03-06T00:04:13.402Z,29.3010
2023-03-06T00:05:15.641Z,29.2950
2023-03-06T00:06:15.816Z,29.2670
2023-03-06T00:07:18.073Z,29.2590
2023-03-06T00:08:18.372Z,29.2900
2023-03-06T00:09:20.553Z,29.3190
2023-03-06T00:10:22.837Z,29.3400
2023-03-06T00:11:25.152Z,29.3550
2023-03-06T00:12:27.452Z,29.2730
2023-03-06T00:13:29.945Z,29.2790
2023-03-06T00:14:29.927Z,29.3260
2023-03-06T00:15:32.205Z,29.3070
2023-03-06T00:16:34.544Z,29.3010
2023-03-06T00:17:36.748Z,29.2620
2023-03-06T00:18:39.053Z,29.2480
2023-03-06T00:19:41.242Z,29.2290
2023-03-06T00:20:43.507Z,29.2120
2023-03-06T00:21:45.758Z,29.2120
2023-03-06T00:22:45.858Z,29.2380
2023-03-06T00:23:48.185Z,29.2290
2023-03-06T00:24:50.345Z,29.2320
2023-03-06T00:25:52.604Z,29.2010
2023-03-06T00:26:54.844Z,29.1960
2023-03-06T00:27:57.079Z,29.1900
2023-03-06T00:28:59.440Z,29.1790
2023-03-06T00:30:01.560Z,29.1980
2023-03-06T00:31:01.685Z,29.1980
2023-03-06T00:32:03.957Z,29.2080
2023-03-06T00:33:06.174Z,29.2300
2023-03-06T00:34:08.582Z,29.2430
2023-03-06T00:35:10.776Z,29.2520
2023-03-06T00:36:13.063Z,29.2740
2023-03-06T00:37:15.366Z,29.2470
2023-03-06T00:38:15.516Z,29.1860
2023-03-06T00:39:17.928Z,29.1240
2023-03-06T00:40:20.086Z,29.1520
2023-03-06T00:41:22.346Z,29.1750
2023-03-06T00:42:24.662Z,29.1520
2023-03-06T00:43:26.972Z,29.1260
2023-03-06T00:44:29.274Z,29.1760
2023-03-06T00:45:29.342Z,29.1460
2023-03-06T00:46:31.628Z,29.1540
2023-03-06T00:47:33.905Z,29.2360
2023-03-06T00:48:36.166Z,29.1930
2023-03-06T00:49:38.566Z,29.1460
2023-03-06T00:50:40.647Z,29.0790
2023-03-06T00:51:42.913Z,29.0700
2023-03-06T00:52:45.175Z,29.0850
2023-03-06T00:53:45.272Z,29.1410
2023-03-06T00:54:47.567Z,29.1200
2023-03-06T00:55:49.727Z,29.0210
2023-03-06T00:56:51.968Z,28.9410
2023-03-06T00:57:54.251Z,28.9110
2023-03-06T00:58:56.514Z,28.9080
2023-03-06T00:59:58.816Z,28.9420
2023-03-06T01:01:01.062Z,29.0320
2023-03-06T01:02:03.441Z,29.0360
2023-03-06T01:03:03.395Z,29.0130
2023-03-06T01:04:05.665Z,28.9800
2023-03-06T01:05:08.005Z,28.9690
2023-03-06T01:06:10.216Z,28.9590
2023-03-06T01:07:12.484Z,28.9300
2023-03-06T01:08:14.689Z,28.9540
2023-03-06T01:09:16.933Z,28.9420
2023-03-06T01:10:17.158Z,28.9400
2023-03-06T01:11:17.300Z,28.9190
2023-03-06T01:12:21.370Z,28.8930
2023-03-06T01:13:21.959Z,28.9190
2023-03-06T01:14:24.294Z,28.9130
2023-03-06T01:15:26.658Z,28.8320
2023-03-06T01:16:26.877Z,28.8260
2023-03-06T01:17:29.140Z,28.8470
2023-03-06T01:18:31.463Z,28.8750
2023-03-06T01:19:33.788Z,28.8750
2023-03-06T01:20:36.277Z,28.8470
2023-03-06T01:21:38.466Z,28.8590
2023-03-06T01:22:40.799Z,28.8940
2023-03-06T01:23:43.121Z,28.8700
2023-03-06T01:24:45.425Z,28.9020
2023-03-06T01:25:47.744Z,28.8630
2023-03-06T01:26:47.889Z,28.8340
2023-03-06T01:27:50.180Z,28.7910
2023-03-06T01:28:52.497Z,28.7800
2023-03-06T01:29:54.807Z,28.7740
2023-03-06T01:30:57.201Z,28.8410
2023-03-06T01:31:59.580Z,28.9130
2023-03-06T01:32:59.569Z,28.8520
2023-03-06T01:34:01.729Z,28.8740
2023-03-06T01:35:03.944Z,28.8470
2023-03-06T01:36:06.306Z,28.8320
2023-03-06T01:37:08.448Z,28.8630
2023-03-06T01:38:10.705Z,28.7520
2023-03-06T01:39:12.936Z,28.7460
2023-03-06T01:40:15.129Z,28.7480
2023-03-06T01:41:17.411Z,28.6960
2023-03-06T01:42:19.579Z,28.6900
2023-03-06T01:43:21.853Z,28.7350
2023-03-06T01:44:24.110Z,28.7450
2023-03-06T01:45:33.090Z,28.7700
2023-03-06T01:46:35.247Z,28.8330
2023-03-06T01:47:37.301Z,28.7760
2023-03-06T01:48:39.459Z,28.7300
2023-03-06T01:49:41.660Z,28.7620
2023-03-06T01:50:43.809Z,28.8360
2023-03-06T01:51:46.127Z,28.8390
2023-03-06T01:52:48.157Z,28.7830
2023-03-06T01:53:50.354Z,28.7830
2023-03-06T01:54:52.553Z,28.7350
2023-03-06T01:55:54.719Z,28.7240
2023-03-06T01:56:56.932Z,28.7010
2023-03-06T01:57:59.127Z,28.7390
2023-03-06T01:59:01.313Z,28.7570
2023-03-06T02:00:03.534Z,28.7160
2023-03-06T02:01:05.886Z,28.7830
2023-03-06T02:02:08.097Z,28.7570
2023-03-06T02:03:10.203Z,28.6960
2023-03-06T02:04:12.408Z,28.7560
2023-03-06T02:05:14.616Z,28.6850
2023-03-06T02:06:14.734Z,28.7010
2023-03-06T02:07:17.074Z,28.7220
2023-03-06T02:08:19.205Z,28.7670
2023-03-06T02:09:21.464Z,28.7110
2023-03-06T02:10:23.708Z,28.7350
2023-03-06T02:11:25.963Z,28.6960
2023-03-06T02:12:28.260Z,28.7060
2023-03-06T02:13:30.374Z,28.6890
2023-03-06T02:14:32.599Z,28.6950
2023-03-06T02:15:34.793Z,28.7550
2023-03-06T02:16:37.103Z,28.7730
2023-03-06T02:17:39.205Z,28.7300
2023-03-06T02:18:39.226Z,28.7600
2023-03-06T02:19:41.390Z,28.7880
2023-03-06T02:20:43.605Z,28.7820
2023-03-06T02:21:45.731Z,28.7340
2023-03-06T02:22:48.046Z,28.6850
2023-03-06T02:23:50.074Z,28.6610
2023-03-06T02:24:52.233Z,28.6780
2023-03-06T02:25:54.427Z,28.7010
2023-03-06T02:26:56.568Z,28.7470
2023-03-06T02:27:58.869Z,28.7640
2023-03-06T02:29:00.981Z,28.7090
2023-03-06T02:30:03.197Z,28.7240
2023-03-06T02:31:05.503Z,28.7160
2023-03-06T02:32:07.669Z,28.6600
2023-03-06T02:33:09.884Z,28.7700
2023-03-06T02:34:12.047Z,28.7140
2023-03-06T02:35:14.279Z,28.7130
2023-03-06T02:36:16.441Z,28.7130
2023-03-06T02:37:18.691Z,28.7140
2023-03-06T02:38:18.879Z,28.6790
2023-03-06T02:39:20.973Z,28.7200
2023-03-06T02:40:23.211Z,28.7290
2023-03-06T02:41:25.434Z,28.6420
2023-03-06T02:42:27.651Z,28.6420
2023-03-06T02:43:29.946Z,28.5460
2023-03-06T02:44:32.142Z,28.6310
2023-03-06T02:45:34.417Z,28.6740
2023-03-06T02:46:36.697Z,28.6900
2023-03-06T02:47:38.975Z,28.6530
2023-03-06T02:48:39.121Z,28.6740
2023-03-06T02:49:41.389Z,28.6740
2023-03-06T02:50:43.650Z,28.5660
2023-03-06T02:51:45.873Z,28.5560
2023-03-06T02:52:48.133Z,28.5850
2023-03-06T02:53:50.556Z,28.5620
2023-03-06T02:54:52.675Z,28.5850
2023-03-06T02:55:52.874Z,28.6260
2023-03-06T02:56:55.164Z,28.6370
2023-03-06T02:57:57.486Z,28.6130
2023-03-06T02:58:59.807Z,28.5470
2023-03-06T03:00:02.092Z,28.5850
2023-03-06T03:01:04.394Z,28.6400
2023-03-06T03:02:04.570Z,28.6190
2023-03-06T03:03:06.860Z,28.5790
2023-03-06T03:04:09.342Z,28.6020
2023-03-06T03:05:11.472Z,28.5580
2023-03-06T03:06:13.764Z,28.5500
2023-03-06T03:07:16.074Z,28.5270
2023-03-06T03:08:18.378Z,28.4810
2023-03-06T03:09:18.569Z,28.5300
2023-03-06T03:10:20.842Z,28.5320
2023-03-06T03:11:23.155Z,28.4700
2023-03-06T03:12:25.418Z,28.5050
2023-03-06T03:13:27.751Z,28.5420
2023-03-06T03:14:30.127Z,28.5170
2023-03-06T03:15:32.478Z,28.4710
2023-03-06T03:16:32.411Z,28.4710
2023-03-06T03:17:34.737Z,28.4710
2023-03-06T03:18:37.037Z,28.4710
2023-03-06T03:19:39.412Z,28.5410
2023-03-06T03:20:41.603Z,28.6290
2023-03-06T03:21:43.899Z,28.6400
2023-03-06T03:22:46.304Z,28.5580
2023-03-06T03:23:48.455Z,28.4980
2023-03-06T03:24:50.806Z,28.4980
2023-03-06T03:25:53.120Z,28.4900
2023-03-06T03:26:55.386Z,28.5390
2023-03-06T03:27:57.753Z,28.5550
2023-03-06T03:28:57.955Z,28.5200
2023-03-06T03:30:00.401Z,28.5120
2023-03-06T03:31:02.668Z,28.4920
2023-03-06T03:32:05.050Z,28.4960
2023-03-06T03:33:07.271Z,28.5120
2023-03-06T03:34:09.589Z,28.4860
2023-03-06T03:35:09.901Z,28.4760
2023-03-06T03:36:12.123Z,28.4630
2023-03-06T03:37:14.443Z,28.4790
2023-03-06T03:38:16.784Z,28.4700
2023-03-06T03:39:19.110Z,28.4580
2023-03-06T03:40:19.404Z,28.4520
2023-03-06T03:41:21.568Z,28.4370
2023-03-06T03:42:23.908Z,28.4350
2023-03-06T03:43:26.239Z,28.4320
2023-03-06T03:44:28.531Z,28.4320
2023-03-06T03:45:30.856Z,28.4020
2023-03-06T03:47:11.901Z,28.4540
2023-03-06T03:48:14.094Z,28.3930
2023-03-06T03:49:16.309Z,28.3360
2023-03-06T03:50:16.450Z,28.3760
2023-03-06T03:51:18.771Z,28.3930
2023-03-06T03:52:21.079Z,28.3540
2023-03-06T03:53:23.305Z,28.3370
2023-03-06T03:54:25.589Z,28.3580
2023-03-06T03:55:27.880Z,28.3180
2023-03-06T03:56:30.215Z,28.3180
2023-03-06T03:57:30.251Z,28.3740
2023-03-06T03:58:32.557Z,28.3740
2023-03-06T03:59:34.864Z,28.3840
2023-03-06T04:00:37.192Z,28.3970
2023-03-06T04:01:39.950Z,28.4400
2023-03-06T04:02:41.807Z,28.4150
2023-03-06T04:03:44.084Z,28.3740
2023-03-06T04:04:44.253Z,28.3710
2023-03-06T04:05:46.516Z,28.3630
2023-03-06T04:06:48.836Z,28.2910
2023-03-06T04:07:51.090Z,28.2910
2023-03-06T04:08:53.403Z,28.3120
2023-03-06T04:09:55.688Z,28.3510
2023-03-06T04:10:57.996Z,28.3320
2023-03-06T04:11:58.195Z,28.3160
2023-03-06T04:13:00.396Z,28.3570
2023-03-06T04:14:02.688Z,28.3020
2023-03-06T04:15:04.926Z,28.2820
2023-03-06T04:16:07.209Z,28.3130
2023-03-06T04:17:09.619Z,28.3590
2023-03-06T04:18:11.838Z,28.4160
2023-03-06T04:19:12.012Z,28.4400
2023-03-06T04:20:14.306Z,28.4400
2023-03-06T04:21:16.598Z,28.4790
2023-03-06T04:22:18.892Z,28.5370
2023-03-06T04:23:21.184Z,28.5450
2023-03-06T04:24:23.480Z,28.5240
2023-03-06T04:25:23.638Z,28.5060
2023-03-06T04:26:25.955Z,28.5370
2023-03-06T04:27:28.201Z,28.5710
2023-03-06T04:28:30.428Z,28.6100
2023-03-06T04:29:32.708Z,28.5900
2023-03-06T04:30:34.970Z,28.6100
2023-03-06T04:31:37.315Z,28.6210
2023-03-06T04:32:39.640Z,28.6670
2023-03-06T04:33:39.628Z,28.7290
2023-03-06T04:34:41.876Z,28.7900
2023-03-06T04:35:44.159Z,28.7640
2023-03-06T04:36:46.395Z,28.7460
2023-03-06T04:37:48.725Z,28.7870
2023-03-06T04:38:50.923Z,28.8210
2023-03-06T04:39:53.143Z,28.8020
2023-03-06T04:40:55.404Z,28.7910
2023-03-06T04:41:57.714Z,28.7820
2023-03-06T04:42:57.900Z,28.9710
2023-03-06T04:44:00.070Z,28.9840
2023-03-06T04:45:02.354Z,29.0360
2023-03-06T04:46:04.710Z,29.0370
2023-03-06T04:47:06.925Z,29.0540
2023-03-06T04:48:09.217Z,29.0540
2023-03-06T04:49:11.511Z,29.1790
2023-03-06T04:50:11.682Z,29.2050
2023-03-06T04:51:14.001Z,29.2320
2023-03-06T04:52:16.303Z,29.2430
2023-03-06T04:53:18.642Z,29.1870
2023-03-06T04:54:20.964Z,29.1760
2023-03-06T04:55:21.159Z,29.2250
2023-03-06T04:56:23.432Z,29.2820
2023-03-06T04:57:25.711Z,29.3020
2023-03-06T04:58:28.134Z,29.4050
2023-03-06T04:59:30.312Z,29.4660
2023-03-06T05:00:32.594Z,29.4770
2023-03-06T05:01:34.860Z,29.4710
2023-03-06T05:02:35.035Z,29.4600
2023-03-06T05:03:37.474Z,29.3770
2023-03-06T05:04:39.664Z,29.3220
2023-03-06T05:05:41.928Z,29.3450
2023-03-06T05:06:44.201Z,29.3710
2023-03-06T05:07:46.442Z,29.3810
2023-03-06T05:08:48.864Z,29.3710
2023-03-06T05:10:29.782Z,29.5960
2023-03-06T05:11:31.954Z,29.6310
2023-03-06T05:12:34.194Z,29.6370
2023-03-06T05:13:36.433Z,29.6360
2023-03-06T05:14:36.689Z,29.7000
2023-03-06T05:15:38.828Z,29.7670
2023-03-06T05:16:41.132Z,29.7410
2023-03-06T05:17:43.346Z,29.7620
2023-03-06T05:18:45.606Z,29.7910
2023-03-06T05:19:47.898Z,29.8470
2023-03-06T05:20:50.153Z,29.8850
2023-03-06T05:21:50.282Z,29.9140
2023-03-06T05:22:52.506Z,29.9470
2023-03-06T05:23:54.737Z,30.0480
2023-03-06T05:24:57.061Z,30.1030
2023-03-06T05:25:59.207Z,30.1260
2023-03-06T05:27:01.411Z,30.1540
2023-03-06T05:28:03.685Z,30.1510
2023-03-06T05:29:05.906Z,30.2060
2023-03-06T05:30:08.255Z,30.1850
2023-03-06T05:31:10.399Z,30.2340
2023-03-06T05:32:12.809Z,30.2470
2023-03-06T05:33:12.718Z,30.2520
2023-03-06T05:34:14.988Z,30.2660
2023-03-06T05:35:17.340Z,30.3770
2023-03-06T05:36:19.509Z,30.4030
2023-03-06T05:37:21.761Z,30.4230
2023-03-06T05:38:24.024Z,30.4280
2023-03-06T05:39:26.282Z,30.4170
2023-03-06T05:40:28.583Z,30.4100
2023-03-06T05:41:30.815Z,30.4110
2023-03-06T05:42:30.954Z,30.3920
2023-03-06T05:43:33.226Z,30.2580
2023-03-06T05:44:35.504Z,30.1830
2023-03-06T05:45:37.791Z,30.2190
2023-03-06T05:46:40.021Z,30.2620
2023-03-06T05:47:42.282Z,30.3220
2023-03-06T05:48:46.776Z,30.3430
2023-03-06T05:49:46.789Z,30.2630
2023-03-06T05:50:47.008Z,30.3750
2023-03-06T05:51:49.158Z,30.5090
2023-03-06T05:52:51.427Z,30.4220
2023-03-06T05:53:53.673Z,30.3890
2023-03-06T05:54:55.917Z,30.3640
2023-03-06T05:55:58.197Z,30.3380
2023-03-06T05:57:00.441Z,30.2560
2023-03-06T05:58:02.678Z,30.1780
2023-03-06T05:59:04.947Z,30.2660
2023-03-06T06:00:04.998Z,30.2880
2023-03-06T06:01:07.274Z,30.2770
2023-03-06T06:02:09.528Z,30.2300
2023-03-06T06:03:11.744Z,29.3820
2023-03-06T06:04:13.993Z,27.8210
2023-03-06T06:05:16.296Z,26.9130
2023-03-06T06:06:18.678Z,26.3590
2023-03-06T06:07:20.878Z,26.1220
2023-03-06T06:08:21.026Z,25.9070
2023-03-06T06:09:23.334Z,25.7820
2023-03-06T06:10:25.648Z,25.8060
2023-03-06T06:11:28.002Z,26.6670
2023-03-06T06:12:30.273Z,28.4650
2023-03-06T06:13:32.581Z,28.8400
2023-03-06T06:14:34.891Z,28.6970
2023-03-06T06:15:35.073Z,28.5020
2023-03-06T06:16:37.422Z,28.4420
2023-03-06T06:17:39.656Z,28.4880
2023-03-06T06:18:41.934Z,28.5240
2023-03-06T06:19:44.190Z,28.6090
2023-03-06T06:20:46.474Z,28.6350
2023-03-06T06:21:46.746Z,28.6600
2023-03-06T06:22:48.976Z,28.6810
2023-03-06T06:23:51.328Z,28.6360
2023-03-06T06:24:53.672Z,28.6810
2023-03-06T06:25:56.029Z,28.6970
2023-03-06T06:26:56.245Z,28.7490
2023-03-06T06:27:58.576Z,28.6420
2023-03-06T06:29:00.900Z,28.6490
2023-03-06T06:30:03.301Z,28.6310
2023-03-06T06:31:05.634Z,28.6560
2023-03-06T06:32:05.767Z,28.7040
2023-03-06T06:33:08.021Z,28.7360
2023-03-06T06:34:10.348Z,28.7860
2023-03-06T06:35:12.649Z,28.8170
2023-03-06T06:36:57.899Z,28.8530
2023-03-06T06:38:00.025Z,28.8890
2023-03-06T06:39:02.187Z,28.8580
2023-03-06T06:40:04.402Z,28.8470
2023-03-06T06:41:33.461Z,28.8220
2023-03-06T06:42:28.609Z,28.9080
2023-03-06T06:43:09.022Z,28.8870
2023-03-06T06:44:11.128Z,28.8820
2023-03-06T06:45:13.394Z,28.8560
2023-03-06T06:46:49.939Z,28.8570
2023-03-06T06:47:22.889Z,28.3570
2023-03-06T06:48:20.208Z,28.5190
2023-03-06T06:49:22.285Z,28.7200
2023-03-06T06:50:24.496Z,28.8470
2023-03-06T06:51:26.741Z,28.8480
2023-03-06T06:52:29.024Z,28.8440
2023-03-06T06:53:29.165Z,28.8270
2023-03-06T06:54:31.477Z,28.8440
2023-03-06T06:55:33.802Z,28.8630
2023-03-06T06:56:36.109Z,28.8770
2023-03-06T06:57:38.416Z,28.8350
2023-03-06T06:58:40.865Z,28.8350
2023-03-06T06:59:40.916Z,28.8610
2023-03-06T07:00:43.230Z,28.8460
2023-03-06T07:01:43.546Z,28.8940
2023-03-06T07:02:45.713Z,28.9280
2023-03-06T07:03:48.188Z,28.9600
2023-03-06T07:05:03.081Z,29.0010
2023-03-06T07:05:50.509Z,29.0120
2023-03-06T07:06:52.797Z,29.0220
2023-03-06T07:07:55.100Z,29.0720
2023-03-06T07:08:57.571Z,29.1110
2023-03-06T07:09:59.691Z,29.1280
2023-03-06T07:11:02.005Z,29.1400
2023-03-06T07:12:02.112Z,29.1350
2023-03-06T07:13:04.323Z,29.1130
2023-03-06T07:14:06.653Z,29.1020
2023-03-06T07:15:08.840Z,29.0830
2023-03-06T07:16:11.207Z,29.0930
2023-03-06T07:17:13.417Z,29.1590
2023-03-06T07:18:15.733Z,29.1610
2023-03-06T07:19:18.142Z,29.1290
2023-03-06T07:20:18.113Z,29.1380
2023-03-06T07:21:20.422Z,29.1490
2023-03-06T07:22:22.651Z,29.1850
2023-03-06T07:23:24.895Z,29.1540
2023-03-06T07:24:27.200Z,29.2250
2023-03-06T07:25:29.483Z,29.2650
2023-03-06T07:26:34.505Z,29.2980
2023-03-06T07:27:32.038Z,29.2970
2023-03-06T07:28:46.292Z,29.2400
2023-03-06T07:29:36.732Z,29.2980
2023-03-06T07:30:38.955Z,29.3150
2023-03-06T07:31:41.254Z,29.3210
2023-03-06T07:32:43.597Z,29.3290
2023-03-06T07:33:43.680Z,29.3380
2023-03-06T07:34:46.065Z,29.3340
2023-03-06T07:35:48.357Z,29.3180
2023-03-06T07:36:50.721Z,29.3100
2023-03-06T07:37:53.038Z,29.3440
2023-03-06T07:38:53.241Z,29.3180
2023-03-06T07:39:55.699Z,29.3250
2023-03-06T07:40:57.953Z,29.3100
2023-03-06T07:42:00.435Z,29.3150
2023-03-06T07:43:17.150Z,29.3790
2023-03-06T07:44:02.894Z,29.4410
2023-03-06T07:45:05.376Z,29.4430
2023-03-06T07:46:07.728Z,29.4170
2023-03-06T07:47:07.868Z,29.3820
2023-03-06T07:48:10.216Z,29.4230
2023-03-06T07:49:12.576Z,29.4200
2023-03-06T07:50:15.054Z,29.4270
2023-03-06T07:51:15.162Z,29.4070
2023-03-06T07:52:17.510Z,29.4420
2023-03-06T07:53:19.835Z,29.4640
2023-03-06T07:54:22.204Z,29.4820
2023-03-06T07:55:22.408Z,29.4760
2023-03-06T07:56:24.744Z,29.4780
2023-03-06T07:57:27.015Z,29.4870
2023-03-06T07:58:28.176Z,29.5190
2023-03-06T07:59:29.439Z,29.5440
2023-03-06T08:00:31.797Z,29.5410
2023-03-06T08:01:33.928Z,29.5130
2023-03-06T08:02:36.255Z,29.4610
2023-03-06T08:03:38.505Z,29.5020
2023-03-06T08:04:40.758Z,29.5000
2023-03-06T08:05:40.996Z,29.5360
2023-03-06T08:06:43.152Z,29.5450
2023-03-06T08:07:45.444Z,29.4790
2023-03-06T08:08:47.760Z,29.5020
2023-03-06T08:09:50.039Z,29.5390
2023-03-06T08:10:52.462Z,29.5230
2023-03-06T08:11:54.578Z,29.5850
2023-03-06T08:12:54.704Z,29.6220
2023-03-06T08:13:56.939Z,29.6100
2023-03-06T08:14:59.210Z,29.6440
2023-03-06T08:16:01.664Z,29.6840
2023-03-06T08:17:03.805Z,29.6560
2023-03-06T08:18:06.137Z,29.6420
2023-03-06T08:19:08.375Z,29.6030
2023-03-06T08:20:10.620Z,29.5160
2023-03-06T08:21:10.856Z,29.2950
2023-03-06T08:22:12.985Z,29.4460
2023-03-06T08:23:15.270Z,29.4720
2023-03-06T08:24:17.551Z,29.5020
2023-03-06T08:25:19.810Z,29.4950
2023-03-06T08:26:22.124Z,29.5390
2023-03-06T08:27:24.397Z,29.5300
2023-03-06T08:28:26.605Z,29.5050
2023-03-06T08:29:29.837Z,29.5220
2023-03-06T08:30:29.007Z,29.4930
2023-03-06T08:31:31.442Z,29.4870
2023-03-06T08:32:33.671Z,29.5100
2023-03-06T08:33:35.859Z,29.4270
2023-03-06T08:34:38.123Z,29.4310
2023-03-06T08:35:40.490Z,29.4160
2023-03-06T08:36:40.561Z,29.4280
2023-03-06T08:37:42.893Z,29.3770
2023-03-06T08:38:45.103Z,29.3770
2023-03-06T08:39:47.359Z,29.3940
2023-03-06T08:40:49.566Z,29.4230
2023-03-06T08:41:51.902Z,29.4050
2023-03-06T08:42:54.056Z,29.4150
2023-03-06T08:43:38.252Z,29.4560
2023-03-06T08:44:39.347Z,29.4790
2023-03-06T08:45:41.568Z,29.4560
2023-03-06T08:46:43.820Z,29.4120
2023-03-06T08:47:46.196Z,29.4330
2023-03-06T08:48:48.408Z,29.4120
2023-03-06T08:49:50.630Z,29.3850
2023-03-06T08:50:52.948Z,29.3680
2023-03-06T08:51:53.131Z,29.3640
2023-03-06T08:52:55.559Z,29.3680
2023-03-06T08:53:57.819Z,29.2780
2023-03-06T08:55:00.138Z,29.2620
2023-03-06T08:56:02.485Z,29.2770
2023-03-06T08:57:02.661Z,29.3180
2023-03-06T08:58:05.093Z,29.2600
2023-03-06T08:59:07.326Z,29.2300
2023-03-06T09:00:09.667Z,29.2400
2023-03-06T09:01:12.036Z,29.2460
2023-03-06T09:02:12.206Z,29.2430
2023-03-06T09:03:14.580Z,29.2120
2023-03-06T09:04:16.925Z,29.1770
2023-03-06T09:05:19.086Z,29.2230
2023-03-06T09:06:21.391Z,29.2430
2023-03-06T09:07:23.665Z,29.2070
2023-03-06T09:08:25.975Z,29.2170
2023-03-06T09:09:28.101Z,29.2270
2023-03-06T09:10:28.265Z,29.2210
2023-03-06T09:11:30.478Z,29.2210
2023-03-06T09:12:47.389Z,29.2320
2023-03-06T09:13:35.097Z,29.2430
2023-03-06T09:14:37.264Z,29.1660
2023-03-06T09:15:39.510Z,29.0950
2023-03-06T09:16:41.922Z,29.0680
2023-03-06T09:17:44.143Z,29.1140
2023-03-06T09:18:44.243Z,29.1070
2023-03-06T09:19:46.402Z,29.1140
2023-03-06T09:20:48.683Z,29.1310
2023-03-06T09:21:50.961Z,29.1620
2023-03-06T09:22:53.250Z,29.1540
2023-03-06T09:23:55.615Z,29.1020
2023-03-06T09:24:57.764Z,29.1250
2023-03-06T09:26:00.047Z,29.0870
2023-03-06T09:27:00.234Z,29.0640
2023-03-06T09:28:11.429Z,29.0730
2023-03-06T09:29:04.820Z,29.1180
2023-03-06T09:30:07.081Z,29.1350
2023-03-06T09:31:09.401Z,29.0870
2023-03-06T09:32:12.237Z,29.0980
2023-03-06T09:33:13.924Z,29.0920
2023-03-06T09:34:14.188Z,29.1310
2023-03-06T09:35:16.360Z,29.0390
2023-03-06T09:36:18.584Z,28.9830
2023-03-06T09:37:20.845Z,29.0220
2023-03-06T09:38:23.122Z,28.9810
2023-03-06T09:39:25.552Z,29.0010
2023-03-06T09:40:27.722Z,29.1020
2023-03-06T09:41:29.968Z,29.1090
2023-03-06T09:42:30.097Z,29.0330
2023-03-06T09:43:32.358Z,28.9890
2023-03-06T09:44:34.714Z,28.7900
2023-03-06T09:45:36.857Z,28.8450
2023-03-06T09:46:39.141Z,28.8880
2023-03-06T09:47:41.398Z,28.8890
2023-03-06T09:48:43.675Z,28.9920
2023-03-06T09:49:46.060Z,29.0280
2023-03-06T09:50:46.137Z,29.0050
2023-03-06T09:51:48.428Z,29.0480
2023-03-06T09:52:50.662Z,29.0370
2023-03-06T09:53:52.951Z,29.0200
2023-03-06T09:54:55.348Z,29.0050
2023-03-06T09:55:57.498Z,28.9860
2023-03-06T09:56:59.781Z,28.8980
2023-03-06T09:57:59.936Z,28.8940
2023-03-06T09:59:02.187Z,28.8110
2023-03-06T10:00:04.768Z,28.7450
2023-03-06T10:01:06.764Z,28.7460
2023-03-06T10:02:09.257Z,28.8220
2023-03-06T10:03:11.544Z,28.7870
2023-03-06T10:04:13.628Z,28.8390
2023-03-06T10:05:13.883Z,28.8890
2023-03-06T10:07:35.631Z,28.8230
2023-03-06T10:08:37.802Z,28.7480
2023-03-06T10:09:40.053Z,28.6950
2023-03-06T10:10:42.418Z,28.7240
2023-03-06T10:11:44.712Z,28.7310
2023-03-06T10:12:44.730Z,28.7370
2023-03-06T10:13:47.022Z,28.7140
2023-03-06T10:14:49.484Z,28.6560
2023-03-06T10:15:51.721Z,28.6730
2023-03-06T10:16:53.801Z,28.6380
2023-03-06T10:17:56.081Z,28.5930
2023-03-06T10:18:58.340Z,28.6180
2023-03-06T10:20:00.634Z,28.6070
2023-03-06T10:21:13.410Z,28.6080
2023-03-06T10:22:03.050Z,28.5480
2023-03-06T10:23:05.557Z,28.6190
2023-03-06T10:24:07.539Z,28.5250
2023-03-06T10:25:09.749Z,28.5640
2023-03-06T10:26:12.183Z,28.5490
2023-03-06T10:27:14.351Z,28.5720
2023-03-06T10:28:16.572Z,28.4740
2023-03-06T10:29:18.767Z,28.3450
2023-03-06T10:30:18.895Z,28.3900
2023-03-06T10:31:21.229Z,28.4060
2023-03-06T10:32:23.462Z,28.4350
2023-03-06T10:33:25.692Z,28.5010
2023-03-06T10:34:26.839Z,28.6080
2023-03-06T10:35:30.654Z,28.6950
2023-03-06T10:36:30.383Z,28.6730
2023-03-06T10:37:32.725Z,28.5770
2023-03-06T10:38:34.941Z,28.4830
2023-03-06T10:39:37.152Z,28.4700
2023-03-06T10:40:38.285Z,28.5060
2023-03-06T10:41:40.545Z,28.6860
2023-03-06T10:42:42.759Z,28.7290
2023-03-06T10:43:44.997Z,28.7960
2023-03-06T10:44:47.281Z,28.7670
2023-03-06T10:45:49.891Z,28.6500
2023-03-06T10:46:51.876Z,28.6730
2023-03-06T10:47:51.975Z,28.6560
2023-03-06T10:48:54.265Z,28.6730
2023-03-06T10:49:56.552Z,28.5920
2023-03-06T10:51:01.101Z,28.4790
2023-03-06T10:51:59.000Z,28.5380
2023-03-06T10:53:01.188Z,28.5310
2023-03-06T10:54:03.502Z,28.4360
2023-03-06T10:55:05.790Z,28.5120
2023-03-06T10:56:05.882Z,28.7220
2023-03-06T10:57:08.144Z,28.7420
2023-03-06T10:58:10.343Z,28.5070
2023-03-06T10:59:12.579Z,27.9100
2023-03-06T11:00:14.804Z,26.3670
2023-03-06T11:01:17.128Z,25.7240
2023-03-06T11:02:19.348Z,25.4660
2023-03-06T11:03:21.549Z,26.0900
2023-03-06T11:04:23.834Z,27.8940
2023-03-06T11:05:26.044Z,28.2100
2023-03-06T11:06:28.300Z,28.3040
2023-03-06T11:07:30.658Z,28.2970
2023-03-06T11:08:30.648Z,28.2950
2023-03-06T11:09:32.973Z,28.2960
2023-03-06T11:10:35.156Z,28.2390
2023-03-06T11:11:38.198Z,28.2550
2023-03-06T11:12:37.604Z,28.2660
2023-03-06T11:13:39.877Z,28.3050
2023-03-06T11:14:42.185Z,28.2510
2023-03-06T11:15:44.538Z,28.2590
2023-03-06T11:16:44.655Z,28.1230
2023-03-06T11:17:46.977Z,28.1080
2023-03-06T11:18:49.231Z,28.1230
2023-03-06T11:19:51.545Z,28.1710
2023-03-06T11:20:53.807Z,28.2000
2023-03-06T11:23:17.839Z,27.9980
2023-03-06T11:24:19.978Z,27.7600
2023-03-06T11:25:22.222Z,27.7230
2023-03-06T11:26:24.443Z,27.5380
2023-03-06T11:27:24.548Z,27.5900
2023-03-06T11:28:26.925Z,27.7080
2023-03-06T11:29:29.631Z,27.7310
2023-03-06T11:30:31.314Z,27.6580
2023-03-06T11:31:33.630Z,27.6430
2023-03-06T11:32:35.794Z,27.6710
2023-03-06T11:33:38.106Z,27.7240
2023-03-06T11:34:40.198Z,27.5730
2023-03-06T11:35:42.485Z,27.6680
2023-03-06T11:36:44.677Z,27.5670
2023-03-06T11:37:46.912Z,27.5100
2023-03-06T11:38:47.039Z,27.5110
2023-03-06T11:39:49.245Z,27.5090
2023-03-06T11:40:51.676Z,27.4600
2023-03-06T11:41:53.729Z,27.4610
2023-03-06T11:42:55.982Z,27.4980
2023-03-06T11:43:58.366Z,27.6290
2023-03-06T11:45:02.905Z,27.5750
2023-03-06T11:46:02.845Z,27.5670
2023-03-06T11:47:03.029Z,27.6070
2023-03-06T11:48:05.252Z,27.6060
2023-03-06T11:49:07.658Z,27.6280
2023-03-06T11:50:09.846Z,27.7050
2023-03-06T11:51:12.152Z,27.6520
2023-03-06T11:52:14.459Z,27.6110
2023-03-06T11:53:16.768Z,27.6180
2023-03-06T11:54:19.041Z,27.6670
2023-03-06T11:55:19.120Z,27.7050
2023-03-06T11:56:19.299Z,27.6770
2023-03-06T11:57:21.612Z,27.6520
2023-03-06T11:58:23.909Z,27.7440
2023-03-06T11:59:26.215Z,27.7640
2023-03-06T12:00:28.499Z,27.6880
2023-03-06T12:01:28.670Z,27.7100
2023-03-06T12:02:30.930Z,27.6480
2023-03-06T12:03:33.214Z,27.6150
2023-03-06T12:04:35.485Z,27.6630
2023-03-06T12:05:37.709Z,27.7330
2023-03-06T12:06:39.922Z,27.6850
2023-03-06T12:07:42.164Z,27.7100
2023-03-06T12:08:44.408Z,27.6330
2023-03-06T12:09:46.731Z,27.6610
2023-03-06T12:10:51.456Z,27.6340
2023-03-06T12:11:48.923Z,27.6250
2023-03-06T12:12:51.088Z,27.5530
2023-03-06T12:14:55.630Z,27.7510
2023-03-06T12:15:57.729Z,27.6490
2023-03-06T12:16:59.968Z,27.6180
2023-03-06T12:18:02.206Z,27.6550
2023-03-06T12:19:04.411Z,27.6370
2023-03-06T12:20:06.643Z,27.6330
2023-03-06T12:21:08.896Z,27.6440
2023-03-06T12:22:11.146Z,27.6740
2023-03-06T12:23:15.749Z,27.6480
2023-03-06T12:24:13.496Z,27.6630
2023-03-06T12:25:15.765Z,27.6080
2023-03-06T12:26:17.960Z,27.6030
2023-03-06T12:27:20.285Z,27.5030
2023-03-06T12:28:22.379Z,27.6300
2023-03-06T12:29:24.642Z,27.6330
2023-03-06T12:30:26.962Z,27.6750
2023-03-06T12:31:29.126Z,27.6340
2023-03-06T12:32:31.416Z,27.6810
2023-03-06T12:33:33.610Z,27.6770
2023-03-06T12:34:33.718Z,27.6380